Time;durP1;ratioP1;P1;durP2;ratioP2;P2;SDS_P1;SDS_P2;PMS_P1;PMS_P2;Temp;Humidity;BMP_temperature;BMP_pressure;BME280_temperature;BME280_humidity;BME280_pressure;Samples;Min_cycle;Max_cycle;Signal;HPM_P1;HPM_P2
2022/10/21 00:00:35;;;;;;;23.25;12.18;;;;;;;-143.48;97.45;78087.53;5016094;28;20029;-71
2022/10/21 00:03:01;;;;;;;22.13;12.48;;;;;;;-143.48;97.65;78085.53;5016082;28;20097;-71
2022/10/21 00:05:26;;;;;;;27.52;12.70;;;;;;;-143.48;97.53;78089.50;5016109;28;20028;-71
2022/10/21 00:07:52;;;;;;;21.08;11.80;;;;;;;-143.48;97.40;78085.53;5016170;28;20088;-71
2022/10/21 00:10:17;;;;;;;27.13;12.23;;;;;;;-143.48;97.61;78087.53;5016065;28;20029;-71
2022/10/21 00:12:43;;;;;;;30.08;12.40;;;;;;;-143.48;97.93;78087.53;5015909;28;20025;-71
2022/10/21 00:15:09;;;;;;;25.65;11.98;;;;;;;-143.48;97.81;78085.53;4998505;28;20037;-71
2022/10/21 00:17:36;;;;;;;22.63;12.38;;;;;;;-143.48;97.81;78081.56;5016072;28;20385;-72
2022/10/21 00:20:07;;;;;;;20.15;12.10;;;;;;;-143.48;97.72;78083.56;5016189;28;20022;-70
2022/10/21 00:22:32;;;;;;;22.63;12.43;;;;;;;-143.48;98.04;78081.56;5014509;28;20034;-71
2022/10/21 00:24:58;;;;;;;18.98;11.68;;;;;;;-143.48;97.96;78079.59;5015691;28;20354;-70
2022/10/21 00:27:23;;;;;;;22.85;12.07;;;;;;;-143.48;97.70;78075.63;5015741;28;20041;-71
2022/10/21 00:29:48;;;;;;;24.60;12.18;;;;;;;-143.48;97.55;78075.63;5015776;28;20083;-71
2022/10/21 00:32:14;;;;;;;28.48;12.23;;;;;;;-143.48;97.60;78075.63;4998095;28;20025;-71
2022/10/21 00:34:42;;;;;;;29.20;12.75;;;;;;;-143.48;97.69;78073.66;5013280;28;20075;-70
2022/10/21 00:37:10;;;;;;;23.08;11.98;;;;;;;-143.48;97.75;78079.59;5015652;28;20025;-70
2022/10/21 00:39:36;;;;;;;20.98;12.32;;;;;;;-143.48;97.76;78081.56;5015666;28;20025;-71
2022/10/21 00:42:04;;;;;;;23.23;12.50;;;;;;;-143.48;97.83;78079.59;4999488;28;20034;-69
2022/10/21 00:44:30;;;;;;;25.90;12.65;;;;;;;-143.48;97.77;78069.69;5018184;28;20065;-71
2022/10/21 00:47:00;;;;;;;22.73;12.65;;;;;;;-143.48;97.75;78063.72;5015617;28;20034;-71
2022/10/21 00:49:35;;;;;;;31.75;13.63;;;;;;;-143.48;97.80;78065.72;5015374;28;20099;-71
2022/10/21 00:52:05;;;;;;;33.28;13.07;;;;;;;-143.48;97.80;78063.72;4997820;28;20057;-72
2022/10/21 00:54:31;;;;;;;24.52;12.65;;;;;;;-143.48;97.68;78061.75;5015121;28;20087;-72
2022/10/21 00:56:57;;;;;;;24.92;12.43;;;;;;;-143.48;97.86;78067.69;5015164;28;20022;-71
2022/10/21 00:59:28;;;;;;;26.02;12.57;;;;;;;-143.48;97.91;78057.78;5015194;28;20026;-71
2022/10/21 01:01:54;;;;;;;23.02;13.05;;;;;;;-143.48;97.97;78047.88;5013832;28;20234;-70
2022/10/21 01:04:19;;;;;;;20.88;12.95;;;;;;;-143.48;98.09;78039.94;5013715;28;20049;-72
2022/10/21 01:06:46;;;;;;;27.95;12.80;;;;;;;-143.48;98.09;78035.97;4997267;28;20105;-72
2022/10/21 01:09:13;;;;;;;20.05;11.35;;;;;;;-143.48;98.51;78032.00;5014777;28;20075;-71
2022/10/21 01:11:42;;;;;;;18.00;11.82;;;;;;;-143.48;98.54;78020.09;5014888;28;20381;-70
2022/10/21 01:14:14;;;;;;;22.30;10.90;;;;;;;-143.48;98.48;78004.25;5014106;28;20030;-71
2022/10/21 01:17:11;;;;;;;26.73;11.13;;;;;;;-143.48;98.71;77994.31;4997171;28;20026;-71
2022/10/21 01:20:04;;;;;;;21.13;11.43;;;;;;;-143.48;98.62;77980.44;4992380;28;20042;-70
2022/10/21 01:22:54;;;;;;;23.80;10.25;;;;;;;-143.48;98.62;77968.53;4997080;28;20030;-71
2022/10/21 01:25:50;;;;;;;19.25;10.27;;;;;;;-143.48;98.69;77938.81;5014571;28;20026;-71
2022/10/21 01:28:24;;;;;;;22.60;10.00;;;;;;;-143.48;98.69;77934.84;4996991;28;20044;-71
2022/10/21 01:31:11;;;;;;;19.13;9.65;;;;;;;-143.48;99.08;77940.78;5014588;28;20026;-71
2022/10/21 01:33:44;;;;;;;23.48;9.45;;;;;;;-143.48;99.61;77926.91;5014663;28;20034;-71
2022/10/21 01:36:15;;;;;;;18.52;9.02;;;;;;;-143.48;99.81;77944.75;5014477;28;20037;-71
2022/10/21 01:38:54;;;;;;;18.05;8.70;;;;;;;-143.48;100.00;77944.75;5014735;28;20032;-71
2022/10/21 01:41:39;;;;;;;16.70;8.50;;;;;;;-143.48;100.00;77942.78;5014524;28;20033;-71
2022/10/21 01:44:33;;;;;;;15.93;7.95;;;;;;;-143.48;100.00;77936.81;5014329;28;20034;-71
2022/10/21 01:47:05;;;;;;;15.18;7.53;;;;;;;-143.48;100.00;77917.00;5012673;28;20041;-72
2022/10/21 01:49:35;;;;;;;13.77;7.60;;;;;;;-143.48;99.94;77926.91;5014240;28;20045;-71
2022/10/21 01:52:01;;;;;;;17.20;7.72;;;;;;;-143.48;100.00;77930.88;4996648;28;20029;-71
2022/10/21 01:54:36;;;;;;;14.18;7.78;;;;;;;-143.48;99.89;77926.91;5014165;28;20032;-72
2022/10/21 01:57:04;;;;;;;14.57;8.23;;;;;;;-143.48;99.94;77940.78;4996447;28;20507;-72
2022/10/21 01:59:30;;;;;;;17.00;9.07;;;;;;;-143.48;99.96;77954.66;5014073;28;20026;-72
2022/10/21 02:01:59;;;;;;;23.65;9.35;;;;;;;-143.48;99.85;77960.63;5014094;28;20034;-72
2022/10/21 02:04:26;;;;;;;19.05;9.95;;;;;;;-143.48;99.89;77958.63;5012744;28;20041;-71
2022/10/21 02:06:51;;;;;;;21.33;10.80;;;;;;;-143.48;100.00;77964.56;5013863;28;20057;-71
2022/10/21 02:09:17;;;;;;;20.48;10.55;;;;;;;-143.48;100.00;77968.53;5013861;28;20021;-71
2022/10/21 02:11:46;;;;;;;25.05;11.00;;;;;;;-143.48;100.00;77974.50;5014078;28;20057;-71
2022/10/21 02:14:22;;;;;;;30.17;11.23;;;;;;;-143.48;100.00;77986.41;5012977;28;20030;-72
2022/10/21 02:16:50;;;;;;;23.30;11.52;;;;;;;-143.48;100.00;77988.38;5013821;28;20496;-71
2022/10/21 02:19:17;;;;;;;21.92;12.13;;;;;;;-143.48;100.00;77986.41;5013745;28;20036;-71
2022/10/21 02:21:45;;;;;;;25.45;13.15;;;;;;;-143.48;100.00;77990.34;5013831;28;20030;-72
2022/10/21 02:24:36;;;;;;;28.58;13.77;;;;;;;-143.48;100.00;77988.38;5013693;28;20033;-71
2022/10/21 02:27:01;;;;;;;22.42;12.50;;;;;;;-143.48;100.00;77984.41;5013629;28;20040;-72
2022/10/21 02:29:32;;;;;;;24.45;12.98;;;;;;;-143.48;100.00;77984.41;5013688;28;20025;-71
2022/10/21 02:32:12;;;;;;;21.92;12.57;;;;;;;-143.48;100.00;77980.44;5013583;28;20030;-71
2022/10/21 02:34:54;;;;;;;29.75;12.45;;;;;;;-143.48;100.00;77978.47;5013571;28;20105;-72
2022/10/21 02:37:19;;;;;;;27.92;13.27;;;;;;;-143.48;100.00;77976.47;5012529;28;20033;-72
2022/10/21 02:40:01;;;;;;;26.52;13.45;;;;;;;-143.48;100.00;77976.47;5016053;28;20030;-71
2022/10/21 02:42:32;;;;;;;25.00;13.63;;;;;;;-143.48;100.00;77972.50;5014914;28;20026;-72
2022/10/21 02:45:00;;;;;;;23.05;13.20;;;;;;;-143.48;100.00;77982.44;5014165;28;20108;-72
2022/10/21 02:47:25;;;;;;;22.52;13.57;;;;;;;-143.48;100.00;77996.31;5013553;28;20022;-72
2022/10/21 02:49:51;;;;;;;25.25;13.90;;;;;;;-143.48;100.00;77994.31;5012218;28;20057;-72
2022/10/21 02:52:16;;;;;;;33.13;14.02;;;;;;;-143.48;100.00;77996.31;4995703;28;20026;-72
2022/10/21 02:54:42;;;;;;;24.38;13.85;;;;;;;-143.48;100.00;77992.34;5013228;28;20030;-72
2022/10/21 02:57:07;;;;;;;32.55;14.13;;;;;;;-143.48;100.00;78002.25;5012289;28;20021;-72
2022/10/21 02:59:32;;;;;;;27.83;13.85;;;;;;;-143.48;100.00;77998.28;5017295;28;20037;-72
2022/10/21 03:01:58;;;;;;;29.55;14.35;;;;;;;-143.48;100.00;78008.22;5017556;28;20029;-72
2022/10/21 03:04:23;;;;;;;27.38;13.93;;;;;;;-143.48;100.00;78014.16;5017393;28;20466;-72
2022/10/21 03:06:48;;;;;;;26.33;13.93;;;;;;;-143.48;100.00;78018.13;5017178;28;20492;-72
2022/10/21 03:09:14;;;;;;;28.40;13.93;;;;;;;-143.48;100.00;78014.16;5017269;28;20504;-72
2022/10/21 03:11:39;;;;;;;24.88;13.98;;;;;;;-143.48;100.00;78014.16;5017192;28;20030;-71
2022/10/21 03:14:04;;;;;;;24.70;13.90;;;;;;;-143.48;100.00;78014.16;5017213;28;20026;-71
2022/10/21 03:16:29;;;;;;;25.95;13.65;;;;;;;-143.48;100.00;78006.22;5017298;28;20499;-71
2022/10/21 03:18:55;;;;;;;29.48;13.80;;;;;;;-143.48;100.00;78014.16;5017132;28;20105;-71
2022/10/21 03:21:20;;;;;;;23.98;13.18;;;;;;;-143.48;100.00;78010.19;5016986;28;20030;-72
2022/10/21 03:23:45;;;;;;;24.05;13.07;;;;;;;-143.48;100.00;78014.16;4999380;28;20028;-71
2022/10/21 03:26:11;;;;;;;21.83;12.80;;;;;;;-143.48;100.00;78022.09;5016808;28;20121;-71
2022/10/21 03:28:36;;;;;;;22.70;13.30;;;;;;;-143.48;100.00;78022.09;5016834;28;20022;-72
2022/10/21 03:31:01;;;;;;;25.10;12.82;;;;;;;-143.48;100.00;78020.09;5016782;28;20072;-71
2022/10/21 03:33:27;;;;;;;24.95;12.88;;;;;;;-143.48;100.00;78022.09;5016767;28;20028;-72
2022/10/21 03:35:52;;;;;;;27.00;13.00;;;;;;;-143.48;100.00;78026.06;5015516;28;20543;-71
2022/10/21 03:38:17;;;;;;;23.00;12.93;;;;;;;-143.48;100.00;78032.00;5016737;28;20543;-71
2022/10/21 03:40:42;;;;;;;26.95;13.15;;;;;;;-143.48;100.00;78035.97;4998976;28;20121;-72
2022/10/21 03:43:08;;;;;;;28.33;13.32;;;;;;;-143.48;100.00;78032.00;5016655;28;20580;-71
2022/10/21 03:45:33;;;;;;;23.98;13.07;;;;;;;-143.48;100.00;78033.97;5016528;28;20037;-71
2022/10/21 03:47:59;;;;;;;27.45;13.80;;;;;;;-143.48;100.00;78032.00;5015272;28;20032;-71
2022/10/21 03:50:24;;;;;;;26.52;13.13;;;;;;;-143.48;100.00;78033.97;5016375;28;20056;-71
2022/10/21 03:52:50;;;;;;;25.48;13.43;;;;;;;-143.48;100.00;78032.00;5015115;28;20084;-71
2022/10/21 03:55:19;;;;;;;24.73;13.25;;;;;;;-143.48;100.00;78032.00;4998874;28;20020;-71
2022/10/21 03:57:44;;;;;;;25.08;12.93;;;;;;;-143.48;100.00;78028.03;4998725;28;20440;-71
2022/10/21 04:00:10;;;;;;;34.25;12.32;;;;;;;-143.48;100.00;78024.06;4998639;28;20026;-71
2022/10/21 04:02:36;;;;;;;25.65;12.25;;;;;;;-143.48;100.00;78016.13;5016291;28;20061;-71
2022/10/21 04:05:01;;;;;;;23.67;13.20;;;;;;;-143.48;100.00;78026.06;5016280;28;20029;-71
2022/10/21 04:07:26;;;;;;;29.90;12.57;;;;;;;-143.48;100.00;78024.06;5016191;28;20526;-71
2022/10/21 04:09:52;;;;;;;23.25;12.30;;;;;;;-143.48;100.00;78022.09;5015982;28;20498;-71
2022/10/21 04:12:17;;;;;;;25.98;12.40;;;;;;;-143.48;100.00;78024.06;4998491;28;20385;-71
2022/10/21 04:14:42;;;;;;;22.98;12.45;;;;;;;-143.48;100.00;78026.06;5016037;28;20152;-72
2022/10/21 04:17:08;;;;;;;29.15;12.15;;;;;;;-143.48;100.00;78030.03;5015990;28;20061;-72
2022/10/21 04:19:33;;;;;;;27.48;12.65;;;;;;;-143.48;100.00;78035.97;5015847;28;20175;-72
2022/10/21 04:21:58;;;;;;;27.42;13.27;;;;;;;-143.48;100.00;78033.97;5015982;28;20029;-72
2022/10/21 04:24:24;;;;;;;24.23;13.15;;;;;;;-143.48;100.00;78037.94;5015990;28;20030;-71
2022/10/21 04:26:49;;;;;;;26.63;12.77;;;;;;;-143.48;100.00;78043.91;5015824;28;20060;-72
2022/10/21 04:29:14;;;;;;;24.92;13.05;;;;;;;-143.48;100.00;78047.88;5015864;28;20017;-71
2022/10/21 04:31:39;;;;;;;25.42;13.18;;;;;;;-143.48;100.00;78055.81;5015762;28;20026;-71
2022/10/21 04:34:05;;;;;;;31.70;13.02;;;;;;;-143.48;100.00;78055.81;5015701;28;20026;-72
2022/10/21 04:36:31;;;;;;;26.33;12.10;;;;;;;-143.48;100.00;78065.72;5015690;28;20026;-71
2022/10/21 04:38:56;;;;;;;27.13;13.05;;;;;;;-143.48;100.00;78059.75;4998430;28;20029;-72
2022/10/21 04:41:21;;;;;;;26.58;13.82;;;;;;;-143.48;100.00;78059.75;5015540;28;20478;-72
2022/10/21 04:43:46;;;;;;;21.52;12.70;;;;;;;-143.48;100.00;78061.75;5015575;28;20033;-71
2022/10/21 04:46:13;;;;;;;28.55;13.05;;;;;;;-143.48;100.00;78069.69;5014152;28;20026;-71
2022/10/21 04:48:38;;;;;;;24.60;12.43;;;;;;;-143.48;100.00;78069.69;5015514;28;20469;-72
2022/10/21 04:51:04;;;;;;;25.50;12.70;;;;;;;-143.48;100.00;78067.69;5015272;28;20054;-72
2022/10/21 04:53:29;;;;;;;29.45;13.55;;;;;;;-143.48;100.00;78071.66;5015521;28;20516;-71
2022/10/21 04:55:55;;;;;;;22.42;12.60;;;;;;;-143.48;100.00;78071.66;5015627;28;20064;-71
2022/10/21 04:58:21;;;;;;;25.50;12.65;;;;;;;-143.48;100.00;78071.66;5015553;28;20029;-72
2022/10/21 05:00:46;;;;;;;24.55;13.07;;;;;;;-143.48;100.00;78081.56;5015385;28;20084;-73
2022/10/21 05:03:12;;;;;;;29.83;13.40;;;;;;;-143.48;100.00;78077.63;4997845;28;20018;-72
2022/10/21 05:05:37;;;;;;;26.38;13.05;;;;;;;-143.48;100.00;78081.56;4998251;28;20538;-71
2022/10/21 05:08:03;;;;;;;22.80;12.60;;;;;;;-143.48;100.00;78085.53;5016081;28;20465;-72
2022/10/21 05:10:31;;;;;;;27.92;13.20;;;;;;;-143.48;100.00;78081.56;5016183;28;20034;-72
2022/10/21 05:12:57;;;;;;;25.83;12.73;;;;;;;-143.48;100.00;78083.56;5016270;28;20025;-71
2022/10/21 05:15:23;;;;;;;24.40;12.88;;;;;;;-143.48;100.00;78087.53;5016398;28;20026;-71
2022/10/21 05:17:49;;;;;;;28.40;12.93;;;;;;;-143.48;100.00;78095.47;5016318;28;20026;-72
2022/10/21 05:20:15;;;;;;;21.17;12.30;;;;;;;-143.48;100.00;78093.47;4998555;28;20199;-72
2022/10/21 05:22:40;;;;;;;26.27;12.82;;;;;;;-143.48;100.00;78089.50;5016366;28;20049;-72
2022/10/21 05:25:06;;;;;;;27.58;12.35;;;;;;;-143.48;100.00;78101.41;5016042;28;20385;-72
2022/10/21 05:27:31;;;;;;;24.70;12.35;;;;;;;-143.48;100.00;78105.38;5017951;28;20042;-73
2022/10/21 05:29:57;;;;;;;20.63;11.75;;;;;;;-143.48;100.00;78099.44;5024615;28;20549;-73
2022/10/21 05:32:23;;;;;;;22.45;11.40;;;;;;;-143.48;100.00;78105.38;5007819;28;20030;-73
2022/10/21 05:34:48;;;;;;;24.38;11.95;;;;;;;-143.48;100.00;78097.44;5025870;28;20085;-75
2022/10/21 05:37:13;;;;;;;23.45;12.02;;;;;;;-143.48;100.00;78103.41;5025233;28;20072;-74
2022/10/21 05:39:38;;;;;;;23.42;11.88;;;;;;;-143.48;100.00;78105.38;5025316;28;20022;-76
2022/10/21 05:42:04;;;;;;;25.00;11.60;;;;;;;-143.48;100.00;78097.44;5025470;28;20091;-76
2022/10/21 05:44:29;;;;;;;20.45;11.45;;;;;;;-143.48;100.00;78095.47;5025341;28;20072;-76
2022/10/21 05:46:55;;;;;;;21.88;11.50;;;;;;;-143.48;100.00;78091.50;5021473;28;20168;-72
2022/10/21 05:49:20;;;;;;;20.23;11.00;;;;;;;-143.48;100.00;78091.50;5016535;28;20042;-71
2022/10/21 05:51:45;;;;;;;28.65;11.85;;;;;;;-143.48;100.00;78087.53;5016441;28;20037;-72
2022/10/21 05:54:11;;;;;;;20.33;10.48;;;;;;;-143.48;100.00;78095.47;5016125;28;20465;-72
2022/10/21 05:56:36;;;;;;;21.88;11.07;;;;;;;-143.48;100.00;78097.44;4998032;28;20049;-72
2022/10/21 05:59:01;;;;;;;19.67;11.15;;;;;;;-143.48;100.00;78093.47;5015386;28;20022;-72
2022/10/21 06:01:27;;;;;;;20.80;10.60;;;;;;;-143.48;100.00;78085.53;5015310;28;20018;-71
2022/10/21 06:03:52;;;;;;;19.52;10.57;;;;;;;-143.48;100.00;78095.47;5015002;28;20055;-72
2022/10/21 06:06:18;;;;;;;20.85;10.02;;;;;;;-143.48;100.00;78085.53;5014804;28;20524;-72
2022/10/21 06:08:43;;;;;;;22.15;10.57;;;;;;;-143.48;100.00;78087.53;5014679;28;20036;-72
2022/10/21 06:11:11;;;;;;;16.95;10.07;;;;;;;-143.48;100.00;78093.47;4996531;28;20389;-72
2022/10/21 06:13:37;;;;;;;20.60;10.07;;;;;;;-143.48;100.00;78095.47;5013314;28;20036;-72
2022/10/21 06:16:04;;;;;;;17.58;9.85;;;;;;;-143.48;100.00;78083.56;5013032;28;20029;-71
2022/10/21 06:18:29;;;;;;;23.73;10.32;;;;;;;-143.48;100.00;78083.56;5013869;28;20473;-72
2022/10/21 06:20:55;;;;;;;27.95;11.68;;;;;;;-143.48;100.00;78083.56;5013681;28;20025;-71
2022/10/21 06:23:20;;;;;;;29.42;13.05;;;;;;;-143.48;100.00;78087.53;4996208;28;20029;-71
2022/10/21 06:26:00;;;;;;;20.48;11.80;;;;;;;-143.48;100.00;78079.59;5013671;28;20022;-72
2022/10/21 06:28:27;;;;;;;31.98;14.80;;;;;;;-143.48;100.00;78081.56;5013484;28;20109;-72
2022/10/21 06:30:53;;;;;;;25.42;14.45;;;;;;;-143.48;100.00;78083.56;4995720;28;20045;-71
2022/10/21 06:33:18;;;;;;;23.52;13.45;;;;;;;-143.48;100.00;78089.50;5011601;28;20034;-71
2022/10/21 06:35:44;;;;;;;18.67;11.60;;;;;;;-143.48;99.99;78077.63;5013406;28;20029;-72
2022/10/21 06:38:09;;;;;;;21.67;11.45;;;;;;;-143.48;99.91;78073.66;5013217;28;20025;-72
2022/10/21 06:40:34;;;;;;;26.58;10.80;;;;;;;-143.48;99.58;78071.66;5012943;28;20075;-72
2022/10/21 06:43:00;;;;;;;21.17;10.18;;;;;;;-143.48;99.25;78075.63;5013537;28;20057;-71
2022/10/21 06:45:25;;;;;;;21.48;9.82;;;;;;;-143.48;99.08;78061.75;5012195;28;20470;-71
2022/10/21 06:47:51;;;;;;;17.80;9.43;;;;;;;-143.48;99.04;78061.75;4995292;28;20404;-72
2022/10/21 06:50:17;;;;;;;20.70;9.23;;;;;;;-143.48;98.99;78061.75;5008628;28;20524;-71
2022/10/21 06:52:42;;;;;;;23.50;8.95;;;;;;;-143.48;98.24;78067.69;5008832;28;20022;-71
2022/10/21 06:55:08;;;;;;;17.38;9.13;;;;;;;-143.48;98.19;78059.75;4993569;28;20034;-72
2022/10/21 06:57:33;;;;;;;19.80;10.07;;;;;;;-143.48;98.16;78059.75;4992509;28;20130;-71
2022/10/21 06:59:58;;;;;;;18.02;9.25;;;;;;;-143.48;98.13;78055.81;4993826;28;20120;-71
2022/10/21 07:02:24;;;;;;;18.17;9.07;;;;;;;-143.48;97.78;78055.81;4995264;28;20054;-70
2022/10/21 07:04:51;;;;;;;23.67;8.85;;;;;;;-143.48;97.65;78057.78;4994578;28;20430;-71
2022/10/21 07:07:18;;;;;;;18.55;8.27;;;;;;;-143.48;97.29;78055.81;5012174;28;20053;-72
2022/10/21 07:09:43;;;;;;;16.75;8.45;;;;;;;-143.48;97.24;78053.81;4992460;28;20430;-72
2022/10/21 07:12:09;;;;;;;17.65;8.50;;;;;;;-143.48;97.19;78047.88;4994435;28;20098;-72
2022/10/21 07:14:34;;;;;;;21.63;8.68;;;;;;;-143.48;97.19;78049.84;4996687;28;20031;-70
2022/10/21 07:17:00;;;;;;;16.05;8.90;;;;;;;-143.48;97.26;78033.97;4996912;28;20022;-72
2022/10/21 07:19:25;;;;;;;18.10;9.45;;;;;;;-143.48;97.10;78049.84;4996421;28;20058;-72
2022/10/21 07:21:50;;;;;;;16.80;8.82;;;;;;;-143.48;97.45;78037.94;4994371;28;20034;-72
2022/10/21 07:24:16;;;;;;;18.05;9.07;;;;;;;-143.48;97.15;78039.94;4997015;28;20022;-73
2022/10/21 07:26:42;;;;;;;16.90;8.98;;;;;;;-143.48;97.21;78033.97;4996464;28;20451;-72
2022/10/21 07:29:07;;;;;;;16.85;8.70;;;;;;;-143.48;97.01;78045.88;4993654;28;20026;-72
2022/10/21 07:31:36;;;;;;;19.60;8.77;;;;;;;-143.48;96.54;78037.94;5008387;28;20086;-72
2022/10/21 07:34:03;;;;;;;13.80;8.75;;;;;;;-143.48;96.61;78039.94;5008306;28;20019;-72
2022/10/21 07:36:31;;;;;;;15.65;8.48;;;;;;;-143.48;96.84;78035.97;5007335;28;20022;-72
2022/10/21 07:39:01;;;;;;;16.17;8.63;;;;;;;-143.48;96.55;78041.91;4993744;28;20105;-73
2022/10/21 07:41:31;;;;;;;16.55;8.20;;;;;;;-143.48;96.42;78041.91;4995203;28;20030;-75
2022/10/21 07:43:57;;;;;;;17.73;8.07;;;;;;;-143.48;96.42;78039.94;4998976;28;20049;-75
2022/10/21 07:46:23;;;;;;;13.95;8.60;;;;;;;-143.48;96.22;78033.97;4997278;28;20030;-71
2022/10/21 07:48:48;;;;;;;13.30;8.15;;;;;;;-143.48;95.86;78022.09;4996798;28;20107;-71
2022/10/21 07:51:19;;;;;;;16.17;8.02;;;;;;;-143.48;95.57;78028.03;5015620;28;20563;-72
2022/10/21 07:53:45;;;;;;;14.60;7.75;;;;;;;-143.48;95.28;78020.09;5015645;28;20038;-72
2022/10/21 07:56:14;;;;;;;15.65;7.70;;;;;;;-143.48;94.66;78016.13;5016329;28;20075;-70
2022/10/21 07:58:40;;;;;;;14.48;7.82;;;;;;;-143.48;94.31;77998.28;5016366;28;20028;-72
2022/10/21 08:01:08;;;;;;;13.27;7.53;;;;;;;-143.48;93.51;77996.31;5016327;28;20033;-72
2022/10/21 08:03:33;;;;;;;13.15;7.82;;;;;;;-143.48;93.40;78000.28;5016232;28;20061;-72
2022/10/21 08:06:00;;;;;;;16.75;7.72;;;;;;;-143.48;93.79;78032.00;4998366;28;20119;-72
2022/10/21 08:08:25;;;;;;;19.55;7.97;;;;;;;-143.48;94.08;78037.94;5015746;28;20056;-71
2022/10/21 08:10:52;;;;;;;13.90;7.82;;;;;;;-143.48;94.15;78051.84;5016171;28;20497;-72
2022/10/21 08:13:18;;;;;;;14.85;7.55;;;;;;;-143.48;94.96;78061.75;5014767;28;20037;-71
2022/10/21 08:15:44;;;;;;;12.07;7.53;;;;;;;-143.48;94.93;78039.94;5015840;28;20030;-72
2022/10/21 08:18:10;;;;;;;14.30;7.88;;;;;;;-143.48;94.76;78041.91;5016075;28;20033;-73
2022/10/21 08:20:40;;;;;;;17.33;8.10;;;;;;;-143.48;94.69;78043.91;5014625;28;20478;-72
2022/10/21 08:23:06;;;;;;;17.73;8.15;;;;;;;-143.48;94.55;78037.94;5014538;28;20045;-72
2022/10/21 08:25:33;;;;;;;16.38;7.93;;;;;;;-143.48;94.52;78035.97;5015670;28;20390;-73
2022/10/21 08:27:58;;;;;;;16.45;7.43;;;;;;;-143.48;94.94;78037.94;4998176;28;20025;-73
2022/10/21 08:30:26;;;;;;;15.90;7.53;;;;;;;-143.48;94.54;78026.06;5015681;28;20045;-72
2022/10/21 08:32:51;;;;;;;12.90;7.65;;;;;;;-143.48;94.59;78022.09;5014544;28;20084;-73
2022/10/21 08:35:17;;;;;;;16.45;8.23;;;;;;;-143.48;94.47;78018.13;5015648;28;20018;-73
2022/10/21 08:37:44;;;;;;;18.85;7.93;;;;;;;-143.48;94.69;78032.00;5015498;28;20108;-72
2022/10/21 08:40:11;;;;;;;19.08;7.88;;;;;;;-143.48;95.03;78018.13;4997822;28;20030;-73
2022/10/21 08:42:41;;;;;;;22.50;7.93;;;;;;;-143.48;94.73;77994.31;5013675;28;20028;-73
2022/10/21 08:45:14;;;;;;;16.48;8.70;;;;;;;-143.48;95.56;78000.28;5013670;28;20033;-73
2022/10/21 08:47:46;;;;;;;14.57;7.93;;;;;;;-143.48;95.15;77984.41;5015906;28;20543;-72
2022/10/21 08:50:14;;;;;;;20.88;8.27;;;;;;;-143.48;95.10;77984.41;5015318;28;20472;-72
2022/10/21 08:52:49;;;;;;;18.90;8.55;;;;;;;-143.48;94.62;77980.44;5015234;28;20073;-72
2022/10/21 08:55:20;;;;;;;14.10;7.85;;;;;;;-143.48;94.25;77980.44;5014051;28;20084;-72
2022/10/21 08:57:48;;;;;;;16.25;7.57;;;;;;;-143.48;93.86;77978.47;4997738;28;20029;-72
2022/10/21 09:00:16;;;;;;;14.35;8.07;;;;;;;-143.48;93.67;77976.47;5014467;28;20389;-73
2022/10/21 09:02:59;;;;;;;13.60;7.93;;;;;;;-143.48;93.27;77960.63;4997061;28;20083;-72
2022/10/21 09:05:36;;;;;;;18.60;7.82;;;;;;;-143.48;92.89;77978.47;5013623;28;20044;-73
2022/10/21 09:08:30;;;;;;;14.35;7.53;;;;;;;-143.48;93.22;77970.53;5013614;28;20052;-72
2022/10/21 09:11:04;;;;;;;21.73;7.50;;;;;;;-143.48;92.84;77966.56;5013700;28;20025;-72
2022/10/21 09:13:49;;;;;;;14.90;6.82;;;;;;;-143.48;92.38;77952.69;5012747;28;20095;-72
2022/10/21 09:16:40;;;;;;;20.52;7.38;;;;;;;-143.48;92.48;77952.69;5014525;28;20101;-72
2022/10/21 09:19:42;;;;;;;11.80;7.25;;;;;;;-143.48;92.26;77942.78;5014404;28;20025;-73
2022/10/21 09:22:17;;;;;;;12.43;6.93;;;;;;;-143.48;92.18;77944.75;4996776;28;20030;-72
2022/10/21 09:25:02;;;;;;;16.13;6.97;;;;;;;-143.48;91.70;77928.88;4996961;28;20438;-72
2022/10/21 09:27:28;;;;;;;14.88;7.20;;;;;;;-143.48;91.72;77917.00;5014531;28;20045;-72
2022/10/21 09:30:00;;;;;;;13.07;6.97;;;;;;;-143.48;91.51;77913.03;5014537;28;20189;-72
2022/10/21 09:32:33;;;;;;;17.77;7.18;;;;;;;-143.48;91.75;77915.00;5013159;28;20155;-72
2022/10/21 09:35:12;;;;;;;17.02;7.07;;;;;;;-143.48;91.48;77903.09;5013254;28;20489;-72
2022/10/21 09:37:47;;;;;;;12.35;6.70;;;;;;;-143.48;90.89;77891.22;5014157;28;20030;-72
2022/10/21 09:40:29;;;;;;;12.80;7.07;;;;;;;-143.48;90.94;77885.25;5012635;28;20134;-72
2022/10/21 09:42:58;;;;;;;16.77;6.90;;;;;;;-143.48;90.47;77869.41;4996432;28;20029;-73
2022/10/21 09:45:42;;;;;;;18.83;7.30;;;;;;;-143.48;90.06;77893.19;4996312;28;20032;-72
2022/10/21 09:48:16;;;;;;;17.95;6.70;;;;;;;-143.48;90.56;77881.28;5012803;28;20034;-72
2022/10/21 09:50:45;;;;;;;12.10;6.53;;;;;;;-143.48;90.58;77901.13;5013897;28;20054;-73
2022/10/21 09:53:18;;;;;;;14.82;6.30;;;;;;;-143.48;91.12;77889.22;5014126;28;20025;-73
2022/10/21 09:55:51;;;;;;;14.98;6.90;;;;;;;-143.48;90.89;77887.25;5014192;28;20096;-72
2022/10/21 09:58:28;;;;;;;20.63;6.78;;;;;;;-143.48;90.92;77889.22;5014074;28;20477;-72
2022/10/21 10:00:54;;;;;;;15.48;6.25;;;;;;;-143.48;91.11;77887.25;4996352;28;20477;-72
2022/10/21 10:03:50;;;;;;;11.35;6.43;;;;;;;-143.48;90.97;77879.31;5013959;28;20041;-72
2022/10/21 10:06:32;;;;;;;18.15;7.00;;;;;;;-143.48;90.94;77871.38;5009445;28;20398;-72
2022/10/21 10:09:12;;;;;;;14.77;6.07;;;;;;;-143.48;90.95;77859.47;5013899;28;20064;-72
2022/10/21 10:11:55;;;;;;;18.85;7.00;;;;;;;-143.48;90.44;77853.53;5013928;28;20030;-72
2022/10/21 10:14:25;;;;;;;19.58;6.70;;;;;;;-143.48;90.97;77861.47;5013730;28;20078;-73
2022/10/21 10:16:50;;;;;;;17.88;6.82;;;;;;;-143.48;90.63;77835.69;5012427;28;20474;-73
2022/10/21 10:19:18;;;;;;;12.68;6.63;;;;;;;-143.48;90.27;77835.69;5013586;28;20028;-73
2022/10/21 10:21:46;;;;;;;20.13;6.38;;;;;;;-143.48;90.29;77827.75;5013540;28;20484;-74
2022/10/21 10:24:22;;;;;;;19.10;6.40;;;;;;;-143.48;90.02;77809.91;5013697;28;20033;-73
2022/10/21 10:26:48;;;;;;;11.77;6.65;;;;;;;-143.48;89.83;77817.84;5013605;28;20030;-73
2022/10/21 10:29:13;;;;;;;12.10;6.20;;;;;;;-143.48;89.77;77801.97;5013586;28;20100;-73
2022/10/21 10:31:48;;;;;;;13.00;6.00;;;;;;;-143.48;89.21;77780.16;5013653;28;20064;-72
2022/10/21 10:34:19;;;;;;;13.18;5.93;;;;;;;-143.48;88.48;77774.22;5012421;28;20393;-73
2022/10/21 10:36:48;;;;;;;11.40;5.65;;;;;;;-143.48;88.59;77782.16;5013604;28;20109;-73
2022/10/21 10:39:22;;;;;;;11.63;5.72;;;;;;;-143.48;89.10;77786.13;5013641;28;20030;-73
2022/10/21 10:41:50;;;;;;;14.00;6.40;;;;;;;-143.48;89.39;77784.13;5013422;28;20080;-73
2022/10/21 10:44:38;;;;;;;18.05;6.57;;;;;;;-143.48;88.82;77774.22;5013357;28;20052;-72
2022/10/21 10:47:06;;;;;;;15.60;6.38;;;;;;;-143.48;88.27;77756.38;5013484;28;20381;-69
2022/10/21 10:49:40;;;;;;;15.95;5.78;;;;;;;-143.48;88.70;77756.38;5013362;28;20076;-73
2022/10/21 10:52:08;;;;;;;20.40;6.20;;;;;;;-143.48;88.14;77754.38;5013374;28;20080;-73
2022/10/21 10:54:35;;;;;;;10.02;5.53;;;;;;;-143.48;88.30;77750.41;4995662;28;20116;-70
2022/10/21 10:57:10;;;;;;;16.27;6.00;;;;;;;-143.48;88.96;77752.41;5013218;28;20026;-72
2022/10/21 10:59:42;;;;;;;9.45;5.70;;;;;;;-143.48;88.77;77750.41;5013118;28;20033;-72
2022/10/21 11:02:10;;;;;;;13.10;5.78;;;;;;;-143.48;89.10;77744.47;5013167;28;20083;-73
2022/10/21 11:04:40;;;;;;;13.77;5.40;;;;;;;-143.48;89.22;77734.56;5013424;28;20065;-73
2022/10/21 11:07:34;;;;;;;13.68;5.75;;;;;;;-143.48;88.24;77714.72;5013223;28;20469;-73
2022/10/21 11:10:41;;;;;;;14.40;5.00;;;;;;;-143.48;87.81;77696.88;5013253;28;20034;-72